This is the latest recevied weather packets stored in our database for station/object DO7VLR-5. If no packets are shown the sender has not sent any weather packets the latest 10 day(s).
| Time | Temp. | Humidity | Pressure | Rain* | Wind** | Luminosity | Snow |
|---|---|---|---|---|---|---|---|
| 1777737615 | 25.56° C | 34% | 1016.4 hPa | 0 mm | - | - | - |
| 1777735818 | 26.11° C | 33% | 1016.7 hPa | 0 mm | - | - | - |
| 1777734017 | 25.56° C | 37% | 1017.2 hPa | 0 mm | - | - | - |
| 1777732217 | 26.11° C | 35% | 1017.5 hPa | 0 mm | - | - | - |
| 1777730418 | 25.56° C | 43% | 1017.7 hPa | 0 mm | - | - | - |
| 1777726817 | 24.44° C | 45% | 1018.6 hPa | 0 mm | - | - | - |
| 1777725017 | 25° C | 46% | 1019.1 hPa | 0 mm | - | - | - |
| 1777723217 | 24.44° C | 47% | 1019.5 hPa | 0 mm | - | - | - |
| 1777721417 | 23.89° C | 48% | 1019.7 hPa | 0 mm | - | - | - |
| 1777719617 | 23.33° C | 48% | 1020.1 hPa | 0 mm | - | - | - |
| 1777717817 | 22.78° C | 49% | 1020.4 hPa | 0 mm | - | - | - |
| 1777716016 | 22.78° C | 48% | 1020.9 hPa | 0 mm | - | - | - |
| 1777714216 | 21.11° C | 52% | 1021.1 hPa | 0 mm | - | - | - |
| 1777712416 | 20° C | 52% | 1021.4 hPa | 0 mm | - | - | - |
| 1777710616 | 18.33° C | 55% | 1021.9 hPa | 0 mm | - | - | - |
| 1777708816 | 17.22° C | 55% | 1021.9 hPa | 0 mm | - | - | - |
| 1777707016 | 14.44° C | 67% | 1022 hPa | 0 mm | - | - | - |
| 1777705218 | 12.22° C | 72% | 1021.8 hPa | 0 mm | - | - | - |
| 1777703416 | 10.56° C | 75% | 1021.9 hPa | 0 mm | - | - | - |
| 1777701616 | 8.33° C | 80% | 1022 hPa | 0 mm | - | - | - |
| 1777699816 | 7.22° C | 83% | 1022.1 hPa | 0 mm | - | - | - |
| 1777698016 | 6.11° C | 86% | 1021.9 hPa | 0 mm | - | - | - |
| 1777696216 | 5.56° C | 90% | 1021.9 hPa | 0 mm | - | - | - |
| 1777694416 | 5° C | 89% | 1021.8 hPa | 0 mm | - | - | - |
| 1777692615 | 5.56° C | 89% | 1021.7 hPa | 0 mm | - | - | - |
* Rain latest hour (hover to see other rain measurements)
** Current wind speed in m/s (hover to see current wind gust speed)